Aviation Digital Data Service (ADDS)

Output produced by METARs form (1820 UTC 22 November 2017)
found at http://www.aviationweather.gov/adds/metars/
 
TAF SKBQ 221700Z 2218/2318 28004KT 9999 FEW020 SCT200 
     TEMPO 2221/2300 7000 DZRA SCT015TCU 
     TEMPO 2309/2313 5000 BR SCT010 TX33/2218Z TN24/2311Z
       
TAF SKBO 221700Z 2218/2318 28010KT 9999 SCT020 SCT200 
     TEMPO 2221/2300 8000 DZ SCT017TCU BKN080 
     BECMG 2301/2303 VRB02KT FEW020 
     PROB40 
     TEMPO 2308/2313 8000 MIFG 
     BECMG 2315/2317 28012KT SCT020 SCT200 TX22/2218Z TN06/2311Z
       
TAF SKBG 221700Z 2218/2318 33008KT 9999 FEW015 SCT080 
     TEMPO 2223/2304 8000 VCFG DZ SCT015TCU 
     BECMG 2300/2302 VRB02KT 
     TEMPO 2308/2313 5000 BCFG DZ SCT010 
     BECMG 2315/2317 32008KT SCT017 TX26/2218Z TN18/2311Z 
       
TAF SKCL 221700Z 2218/2318 32008KT 9999 SCT020 SCT300 
     PROB30 
     TEMPO 2220/2222 8000 VCSH SCT017TCU 
     BECMG 2300/2302 SCT015 BKN120 
     PROB40 
     TEMPO 2304/2308 8000 DZ 
     TEMPO 2310/2313 7000 VCFG TX31/2219Z TN19/2311Z
       
TAF SKCG 221700Z 2218/2318 32008KT 9999 FEW018 SCT080 
     TEMPO 2219/2223 SCT015CB 
     PROB40 
     TEMPO 2308/2312 7000 DZRA SCT012CB TX33/2218Z TN25/2311Z
       
TAF SKCC 221700Z 2218/2318 02012KT 9999 SCT020 SCT200 
     TEMPO 2218/2223 SCT018TCU 
     PROB40 
     TEMPO 2303/2306 8000 VCSH SCT012CB TX33/2218Z TN23/2311Z
       
TAF SKLT 221700Z 2218/2318 VRB02KT 9999 SCT018 BKN080 
     TEMPO 2219/2224 25005KT 8000 DZRA SCT015CB TX32/2218Z TN23/2311Z
       
TAF SKRG 221700Z 2218/2318 03006KT 9999 SCT017 SCT090 
     TEMPO 2221/2224 7000 RADZ SCT017CB BKN080 
     BECMG 2300/2302 00000KT 
     TEMPO 2307/2313 5000 BCFDG BKN006 TX23/2218Z TN12/2311Z
       
TAF SKPE 221700Z 2218/2318 25008KT 9999 SCT017 SCT200 
     TEMPO 2220/2222 8000 VCSH SCT015TCU 
     BECMG 2222/2223 06004KT SCT015 BKN080 
     PROB40 
     TEMPO 2300/2303 8000 DZRA 
     TEMPO 2310/2313 00000KT 5000 BCFG SCT012 TX26/2219Z TN18/2311Z
       
TAF SKSP 221700Z 2218/2318 05010KT 9999 FEW017 BKN090 
     PROB40 
     TEMPO 2218/2220 8000 SHRA SCT015TCU 
     PROB40 
     TEMPO 2309/2311 8000 DZRA SCT015TCU TX32/2219Z TN26/2311Z